Terminal Aerodrome Forecast
Issued by NWS

Home | Current Version | Previous Version | Text Only | Print | Product List | Glossary On
Versions: 1 2 3 4 5 6 7 8 9 10 11 12 13 14 15 16 17 18 19
411
FTUS43 KSGF 241135
TAFBBG
TAF
KBBG 241135Z 2412/2512 12005KT P6SM SCT035 BKN090
     FM241600 14007KT P6SM VCTS SCT030CB BKN060
      TEMPO 2417/2421 6SM -TSRA BKN025CB OVC050
     FM250000 16004KT P6SM SCT040 SCT120
     FM250700 17005KT P6SM VCSH SCT030 BKN080=

USA.gov is the U.S. government's official web portal to all federal, state and local government web resources and services.